sensor_id;sensor_type;location;lat;lon;timestamp;P1;durP1;ratioP1;P2;durP2;ratioP2
26538;SDS011;14205;43.200;24.170;2022-07-24T00:02:20;11.80;;;5.80;;
26538;SDS011;14205;43.200;24.170;2022-07-24T00:04:45;11.20;;;5.05;;
26538;SDS011;14205;43.200;24.170;2022-07-24T00:07:11;15.48;;;5.70;;
26538;SDS011;14205;43.200;24.170;2022-07-24T00:09:37;15.90;;;5.00;;
26538;SDS011;14205;43.200;24.170;2022-07-24T00:12:03;11.88;;;4.72;;
26538;SDS011;14205;43.200;24.170;2022-07-24T00:14:28;10.40;;;4.68;;
26538;SDS011;14205;43.200;24.170;2022-07-24T00:16:54;18.15;;;5.28;;
26538;SDS011;14205;43.200;24.170;2022-07-24T00:19:19;12.15;;;5.05;;
26538;SDS011;14205;43.200;24.170;2022-07-24T00:21:45;12.60;;;4.93;;
26538;SDS011;14205;43.200;24.170;2022-07-24T00:24:11;12.18;;;5.18;;
26538;SDS011;14205;43.200;24.170;2022-07-24T00:26:36;8.98;;;4.80;;
26538;SDS011;14205;43.200;24.170;2022-07-24T00:29:02;14.73;;;4.95;;
26538;SDS011;14205;43.200;24.170;2022-07-24T00:31:28;12.25;;;4.57;;
26538;SDS011;14205;43.200;24.170;2022-07-24T00:33:54;13.13;;;4.82;;
26538;SDS011;14205;43.200;24.170;2022-07-24T00:36:19;11.43;;;5.07;;
26538;SDS011;14205;43.200;24.170;2022-07-24T00:38:45;11.13;;;5.00;;
26538;SDS011;14205;43.200;24.170;2022-07-24T00:41:10;9.90;;;4.65;;
26538;SDS011;14205;43.200;24.170;2022-07-24T00:43:57;8.88;;;4.20;;
26538;SDS011;14205;43.200;24.170;2022-07-24T00:46:33;10.57;;;5.10;;
26538;SDS011;14205;43.200;24.170;2022-07-24T00:49:00;8.93;;;4.43;;
26538;SDS011;14205;43.200;24.170;2022-07-24T00:51:26;13.20;;;4.78;;
26538;SDS011;14205;43.200;24.170;2022-07-24T00:53:52;11.13;;;4.82;;
26538;SDS011;14205;43.200;24.170;2022-07-24T00:56:19;12.00;;;5.15;;
26538;SDS011;14205;43.200;24.170;2022-07-24T00:58:45;9.00;;;4.55;;
26538;SDS011;14205;43.200;24.170;2022-07-24T01:01:11;8.20;;;4.68;;
26538;SDS011;14205;43.200;24.170;2022-07-24T01:03:37;17.92;;;5.03;;
26538;SDS011;14205;43.200;24.170;2022-07-24T01:06:02;9.73;;;4.40;;
26538;SDS011;14205;43.200;24.170;2022-07-24T01:08:28;12.05;;;5.05;;
26538;SDS011;14205;43.200;24.170;2022-07-24T01:10:53;11.02;;;4.88;;
26538;SDS011;14205;43.200;24.170;2022-07-24T01:13:19;10.40;;;4.30;;
26538;SDS011;14205;43.200;24.170;2022-07-24T01:15:46;14.60;;;5.00;;
26538;SDS011;14205;43.200;24.170;2022-07-24T01:18:12;11.40;;;4.88;;
26538;SDS011;14205;43.200;24.170;2022-07-24T01:20:37;13.48;;;4.85;;
26538;SDS011;14205;43.200;24.170;2022-07-24T01:23:04;12.32;;;5.13;;
26538;SDS011;14205;43.200;24.170;2022-07-24T01:25:29;11.80;;;5.40;;
26538;SDS011;14205;43.200;24.170;2022-07-24T01:27:55;9.02;;;5.30;;
26538;SDS011;14205;43.200;24.170;2022-07-24T01:30:21;16.13;;;5.13;;
26538;SDS011;14205;43.200;24.170;2022-07-24T01:32:46;11.73;;;5.05;;
26538;SDS011;14205;43.200;24.170;2022-07-24T01:35:12;9.93;;;5.22;;
26538;SDS011;14205;43.200;24.170;2022-07-24T01:37:37;10.85;;;4.95;;
26538;SDS011;14205;43.200;24.170;2022-07-24T01:40:02;12.23;;;5.13;;
26538;SDS011;14205;43.200;24.170;2022-07-24T01:42:29;11.88;;;4.82;;
26538;SDS011;14205;43.200;24.170;2022-07-24T01:44:54;13.50;;;4.60;;
26538;SDS011;14205;43.200;24.170;2022-07-24T01:47:20;10.63;;;5.28;;
26538;SDS011;14205;43.200;24.170;2022-07-24T01:49:45;9.05;;;4.75;;
26538;SDS011;14205;43.200;24.170;2022-07-24T01:52:11;12.82;;;4.65;;
26538;SDS011;14205;43.200;24.170;2022-07-24T01:54:36;12.38;;;4.70;;
26538;SDS011;14205;43.200;24.170;2022-07-24T01:57:02;11.15;;;4.65;;
26538;SDS011;14205;43.200;24.170;2022-07-24T01:59:27;13.55;;;6.05;;
26538;SDS011;14205;43.200;24.170;2022-07-24T02:01:53;11.13;;;4.68;;
26538;SDS011;14205;43.200;24.170;2022-07-24T02:04:18;10.95;;;5.15;;
26538;SDS011;14205;43.200;24.170;2022-07-24T02:06:44;11.00;;;5.10;;
26538;SDS011;14205;43.200;24.170;2022-07-24T02:09:09;9.05;;;4.45;;
26538;SDS011;14205;43.200;24.170;2022-07-24T02:11:34;10.10;;;4.88;;
26538;SDS011;14205;43.200;24.170;2022-07-24T02:14:00;15.32;;;5.70;;
26538;SDS011;14205;43.200;24.170;2022-07-24T02:16:26;10.60;;;5.20;;
26538;SDS011;14205;43.200;24.170;2022-07-24T02:18:52;11.35;;;4.85;;
26538;SDS011;14205;43.200;24.170;2022-07-24T02:21:17;13.98;;;5.07;;
26538;SDS011;14205;43.200;24.170;2022-07-24T02:23:43;15.95;;;5.30;;
26538;SDS011;14205;43.200;24.170;2022-07-24T02:26:09;11.65;;;5.30;;
26538;SDS011;14205;43.200;24.170;2022-07-24T02:28:34;9.38;;;5.10;;
26538;SDS011;14205;43.200;24.170;2022-07-24T02:30:59;12.55;;;4.75;;
26538;SDS011;14205;43.200;24.170;2022-07-24T02:33:25;15.02;;;5.35;;
26538;SDS011;14205;43.200;24.170;2022-07-24T02:35:50;9.80;;;5.20;;
26538;SDS011;14205;43.200;24.170;2022-07-24T02:38:16;14.32;;;5.75;;
26538;SDS011;14205;43.200;24.170;2022-07-24T02:40:42;14.90;;;5.00;;
26538;SDS011;14205;43.200;24.170;2022-07-24T02:43:07;13.02;;;5.93;;
26538;SDS011;14205;43.200;24.170;2022-07-24T02:45:33;12.20;;;5.47;;
26538;SDS011;14205;43.200;24.170;2022-07-24T02:47:59;14.57;;;5.57;;
26538;SDS011;14205;43.200;24.170;2022-07-24T02:50:25;12.38;;;5.32;;
26538;SDS011;14205;43.200;24.170;2022-07-24T02:52:55;13.40;;;5.47;;
26538;SDS011;14205;43.200;24.170;2022-07-24T02:55:21;17.55;;;5.13;;
26538;SDS011;14205;43.200;24.170;2022-07-24T02:57:47;15.25;;;5.40;;
26538;SDS011;14205;43.200;24.170;2022-07-24T03:00:14;19.88;;;5.75;;
26538;SDS011;14205;43.200;24.170;2022-07-24T03:02:41;18.10;;;5.35;;
26538;SDS011;14205;43.200;24.170;2022-07-24T03:05:07;18.45;;;5.57;;
26538;SDS011;14205;43.200;24.170;2022-07-24T03:07:33;22.52;;;5.55;;
26538;SDS011;14205;43.200;24.170;2022-07-24T03:10:01;12.85;;;5.13;;
26538;SDS011;14205;43.200;24.170;2022-07-24T03:12:28;11.38;;;5.05;;
26538;SDS011;14205;43.200;24.170;2022-07-24T03:14:53;14.80;;;5.03;;
26538;SDS011;14205;43.200;24.170;2022-07-24T03:17:19;14.73;;;5.20;;
26538;SDS011;14205;43.200;24.170;2022-07-24T03:19:44;16.63;;;5.47;;
26538;SDS011;14205;43.200;24.170;2022-07-24T03:22:10;16.42;;;5.55;;
26538;SDS011;14205;43.200;24.170;2022-07-24T03:24:35;20.17;;;6.45;;
26538;SDS011;14205;43.200;24.170;2022-07-24T03:27:00;10.82;;;5.78;;
26538;SDS011;14205;43.200;24.170;2022-07-24T03:29:26;9.90;;;4.78;;
26538;SDS011;14205;43.200;24.170;2022-07-24T03:31:52;11.15;;;4.57;;
26538;SDS011;14205;43.200;24.170;2022-07-24T03:34:17;12.05;;;5.18;;
26538;SDS011;14205;43.200;24.170;2022-07-24T03:36:42;11.15;;;5.00;;
26538;SDS011;14205;43.200;24.170;2022-07-24T03:39:08;15.73;;;5.38;;
26538;SDS011;14205;43.200;24.170;2022-07-24T03:41:34;18.25;;;5.70;;
26538;SDS011;14205;43.200;24.170;2022-07-24T03:43:59;14.02;;;5.25;;
26538;SDS011;14205;43.200;24.170;2022-07-24T03:46:24;14.30;;;5.00;;
26538;SDS011;14205;43.200;24.170;2022-07-24T03:48:52;11.35;;;4.78;;
26538;SDS011;14205;43.200;24.170;2022-07-24T03:51:18;12.80;;;5.60;;
26538;SDS011;14205;43.200;24.170;2022-07-24T03:53:43;11.60;;;4.57;;
26538;SDS011;14205;43.200;24.170;2022-07-24T03:56:09;11.25;;;5.43;;
26538;SDS011;14205;43.200;24.170;2022-07-24T03:58:35;16.63;;;5.45;;
26538;SDS011;14205;43.200;24.170;2022-07-24T04:01:01;16.13;;;4.88;;
26538;SDS011;14205;43.200;24.170;2022-07-24T04:03:26;15.10;;;5.32;;
26538;SDS011;14205;43.200;24.170;2022-07-24T04:05:51;15.10;;;4.72;;
26538;SDS011;14205;43.200;24.170;2022-07-24T04:08:17;15.18;;;4.88;;
26538;SDS011;14205;43.200;24.170;2022-07-24T04:10:42;19.38;;;4.90;;
26538;SDS011;14205;43.200;24.170;2022-07-24T04:13:08;16.75;;;5.15;;
26538;SDS011;14205;43.200;24.170;2022-07-24T04:15:33;15.05;;;5.40;;
26538;SDS011;14205;43.200;24.170;2022-07-24T04:17:59;16.63;;;5.07;;
26538;SDS011;14205;43.200;24.170;2022-07-24T04:20:24;16.58;;;5.13;;
26538;SDS011;14205;43.200;24.170;2022-07-24T04:22:50;21.25;;;5.25;;
26538;SDS011;14205;43.200;24.170;2022-07-24T04:25:15;12.43;;;5.15;;
26538;SDS011;14205;43.200;24.170;2022-07-24T04:27:41;11.98;;;5.60;;
26538;SDS011;14205;43.200;24.170;2022-07-24T04:30:08;11.15;;;4.65;;
26538;SDS011;14205;43.200;24.170;2022-07-24T04:32:35;17.85;;;5.22;;
26538;SDS011;14205;43.200;24.170;2022-07-24T04:35:01;13.55;;;5.13;;
26538;SDS011;14205;43.200;24.170;2022-07-24T04:37:26;14.52;;;4.68;;
26538;SDS011;14205;43.200;24.170;2022-07-24T04:39:52;12.27;;;5.07;;
26538;SDS011;14205;43.200;24.170;2022-07-24T04:42:17;15.77;;;4.68;;
26538;SDS011;14205;43.200;24.170;2022-07-24T04:44:43;11.75;;;5.10;;
26538;SDS011;14205;43.200;24.170;2022-07-24T04:47:08;9.25;;;4.45;;
26538;SDS011;14205;43.200;24.170;2022-07-24T04:49:34;9.70;;;4.45;;
26538;SDS011;14205;43.200;24.170;2022-07-24T04:51:59;9.48;;;4.25;;
26538;SDS011;14205;43.200;24.170;2022-07-24T04:54:24;18.00;;;5.43;;
26538;SDS011;14205;43.200;24.170;2022-07-24T04:56:50;19.13;;;6.40;;
26538;SDS011;14205;43.200;24.170;2022-07-24T04:59:16;17.40;;;5.70;;
26538;SDS011;14205;43.200;24.170;2022-07-24T05:01:41;12.55;;;4.93;;
26538;SDS011;14205;43.200;24.170;2022-07-24T05:04:07;15.82;;;4.60;;
26538;SDS011;14205;43.200;24.170;2022-07-24T05:06:32;12.30;;;4.78;;
26538;SDS011;14205;43.200;24.170;2022-07-24T05:08:57;16.00;;;5.05;;
26538;SDS011;14205;43.200;24.170;2022-07-24T05:11:23;13.52;;;4.82;;
26538;SDS011;14205;43.200;24.170;2022-07-24T05:13:48;11.43;;;5.20;;
26538;SDS011;14205;43.200;24.170;2022-07-24T05:16:14;10.63;;;4.78;;
26538;SDS011;14205;43.200;24.170;2022-07-24T05:18:39;14.50;;;4.90;;
26538;SDS011;14205;43.200;24.170;2022-07-24T05:21:05;14.85;;;5.25;;
26538;SDS011;14205;43.200;24.170;2022-07-24T05:23:30;13.65;;;4.22;;
26538;SDS011;14205;43.200;24.170;2022-07-24T05:25:56;6.78;;;4.50;;
26538;SDS011;14205;43.200;24.170;2022-07-24T05:28:21;8.57;;;4.07;;
26538;SDS011;14205;43.200;24.170;2022-07-24T05:30:46;16.08;;;4.70;;
26538;SDS011;14205;43.200;24.170;2022-07-24T05:33:12;11.90;;;4.40;;
26538;SDS011;14205;43.200;24.170;2022-07-24T05:35:37;14.02;;;4.82;;
26538;SDS011;14205;43.200;24.170;2022-07-24T05:38:03;11.38;;;4.70;;
26538;SDS011;14205;43.200;24.170;2022-07-24T05:40:28;8.70;;;4.53;;
26538;SDS011;14205;43.200;24.170;2022-07-24T05:42:54;9.38;;;4.60;;
26538;SDS011;14205;43.200;24.170;2022-07-24T05:45:19;12.50;;;4.53;;
26538;SDS011;14205;43.200;24.170;2022-07-24T05:47:45;11.13;;;4.32;;
26538;SDS011;14205;43.200;24.170;2022-07-24T05:50:11;9.15;;;3.88;;
26538;SDS011;14205;43.200;24.170;2022-07-24T05:52:39;12.00;;;4.50;;
26538;SDS011;14205;43.200;24.170;2022-07-24T05:55:05;16.80;;;4.45;;
26538;SDS011;14205;43.200;24.170;2022-07-24T05:57:32;14.63;;;4.32;;
26538;SDS011;14205;43.200;24.170;2022-07-24T05:59:58;12.50;;;4.72;;
26538;SDS011;14205;43.200;24.170;2022-07-24T06:02:23;10.00;;;4.32;;
26538;SDS011;14205;43.200;24.170;2022-07-24T06:04:49;11.30;;;4.32;;
26538;SDS011;14205;43.200;24.170;2022-07-24T06:07:14;15.75;;;4.93;;
26538;SDS011;14205;43.200;24.170;2022-07-24T06:09:40;12.63;;;4.60;;
26538;SDS011;14205;43.200;24.170;2022-07-24T06:12:06;11.45;;;4.75;;
26538;SDS011;14205;43.200;24.170;2022-07-24T06:14:32;11.65;;;4.65;;
26538;SDS011;14205;43.200;24.170;2022-07-24T06:16:58;16.73;;;4.65;;
26538;SDS011;14205;43.200;24.170;2022-07-24T06:19:24;13.23;;;4.97;;
26538;SDS011;14205;43.200;24.170;2022-07-24T06:21:50;12.52;;;5.20;;
26538;SDS011;14205;43.200;24.170;2022-07-24T06:24:15;9.55;;;4.70;;
26538;SDS011;14205;43.200;24.170;2022-07-24T06:26:41;14.52;;;4.78;;
26538;SDS011;14205;43.200;24.170;2022-07-24T06:29:06;10.50;;;4.40;;
26538;SDS011;14205;43.200;24.170;2022-07-24T06:31:32;9.55;;;4.32;;
26538;SDS011;14205;43.200;24.170;2022-07-24T06:33:57;10.13;;;4.30;;
26538;SDS011;14205;43.200;24.170;2022-07-24T06:36:23;18.20;;;4.40;;
26538;SDS011;14205;43.200;24.170;2022-07-24T06:38:48;8.52;;;4.30;;
26538;SDS011;14205;43.200;24.170;2022-07-24T06:41:14;12.63;;;4.63;;
26538;SDS011;14205;43.200;24.170;2022-07-24T06:43:39;15.38;;;4.57;;
26538;SDS011;14205;43.200;24.170;2022-07-24T06:46:05;12.45;;;4.43;;
26538;SDS011;14205;43.200;24.170;2022-07-24T06:48:31;11.05;;;4.25;;
26538;SDS011;14205;43.200;24.170;2022-07-24T06:50:56;10.40;;;4.43;;
26538;SDS011;14205;43.200;24.170;2022-07-24T06:53:22;10.48;;;3.90;;
26538;SDS011;14205;43.200;24.170;2022-07-24T06:55:47;9.32;;;4.22;;
26538;SDS011;14205;43.200;24.170;2022-07-24T06:58:13;11.65;;;4.00;;
26538;SDS011;14205;43.200;24.170;2022-07-24T07:00:38;13.25;;;4.28;;
26538;SDS011;14205;43.200;24.170;2022-07-24T07:03:04;11.40;;;3.95;;
26538;SDS011;14205;43.200;24.170;2022-07-24T07:05:30;14.77;;;4.70;;
26538;SDS011;14205;43.200;24.170;2022-07-24T07:07:56;14.77;;;4.20;;
26538;SDS011;14205;43.200;24.170;2022-07-24T07:10:21;12.48;;;4.28;;
26538;SDS011;14205;43.200;24.170;2022-07-24T07:12:48;12.00;;;4.55;;
26538;SDS011;14205;43.200;24.170;2022-07-24T07:15:13;6.88;;;3.70;;
26538;SDS011;14205;43.200;24.170;2022-07-24T07:17:40;11.63;;;4.35;;
26538;SDS011;14205;43.200;24.170;2022-07-24T07:20:07;11.05;;;4.32;;
26538;SDS011;14205;43.200;24.170;2022-07-24T07:22:34;12.52;;;4.45;;
26538;SDS011;14205;43.200;24.170;2022-07-24T07:24:59;16.17;;;4.35;;
26538;SDS011;14205;43.200;24.170;2022-07-24T07:27:25;12.70;;;4.03;;
26538;SDS011;14205;43.200;24.170;2022-07-24T07:29:50;12.98;;;3.88;;
26538;SDS011;14205;43.200;24.170;2022-07-24T07:32:16;8.85;;;4.00;;
26538;SDS011;14205;43.200;24.170;2022-07-24T07:34:41;13.68;;;4.15;;
26538;SDS011;14205;43.200;24.170;2022-07-24T07:37:07;13.45;;;4.10;;
26538;SDS011;14205;43.200;24.170;2022-07-24T07:39:32;12.93;;;4.20;;
26538;SDS011;14205;43.200;24.170;2022-07-24T07:41:58;15.00;;;4.22;;
26538;SDS011;14205;43.200;24.170;2022-07-24T07:44:23;10.65;;;3.92;;
26538;SDS011;14205;43.200;24.170;2022-07-24T07:46:48;11.40;;;4.47;;
26538;SDS011;14205;43.200;24.170;2022-07-24T07:49:14;8.32;;;4.03;;
26538;SDS011;14205;43.200;24.170;2022-07-24T07:51:39;14.77;;;4.95;;
26538;SDS011;14205;43.200;24.170;2022-07-24T07:54:05;9.95;;;4.28;;
26538;SDS011;14205;43.200;24.170;2022-07-24T07:56:30;14.18;;;3.95;;
26538;SDS011;14205;43.200;24.170;2022-07-24T07:58:57;10.50;;;3.63;;
26538;SDS011;14205;43.200;24.170;2022-07-24T08:01:23;12.05;;;4.05;;
26538;SDS011;14205;43.200;24.170;2022-07-24T08:03:48;7.80;;;4.03;;
26538;SDS011;14205;43.200;24.170;2022-07-24T08:06:14;11.38;;;4.10;;
26538;SDS011;14205;43.200;24.170;2022-07-24T08:08:39;13.73;;;4.40;;
26538;SDS011;14205;43.200;24.170;2022-07-24T08:11:05;12.85;;;4.20;;
26538;SDS011;14205;43.200;24.170;2022-07-24T08:13:30;10.60;;;3.72;;
26538;SDS011;14205;43.200;24.170;2022-07-24T08:15:55;12.80;;;3.72;;
26538;SDS011;14205;43.200;24.170;2022-07-24T08:18:21;14.30;;;3.80;;
26538;SDS011;14205;43.200;24.170;2022-07-24T08:20:47;7.35;;;3.10;;
26538;SDS011;14205;43.200;24.170;2022-07-24T08:23:12;5.60;;;3.45;;
26538;SDS011;14205;43.200;24.170;2022-07-24T08:25:38;7.63;;;3.10;;
26538;SDS011;14205;43.200;24.170;2022-07-24T08:28:03;15.00;;;4.55;;
26538;SDS011;14205;43.200;24.170;2022-07-24T08:30:29;7.28;;;3.45;;
26538;SDS011;14205;43.200;24.170;2022-07-24T08:32:54;10.77;;;3.80;;
26538;SDS011;14205;43.200;24.170;2022-07-24T08:35:20;6.40;;;3.35;;
26538;SDS011;14205;43.200;24.170;2022-07-24T08:37:45;13.05;;;3.92;;
26538;SDS011;14205;43.200;24.170;2022-07-24T08:40:11;11.48;;;3.40;;
26538;SDS011;14205;43.200;24.170;2022-07-24T08:42:37;11.43;;;3.10;;
26538;SDS011;14205;43.200;24.170;2022-07-24T08:45:04;6.00;;;3.00;;
26538;SDS011;14205;43.200;24.170;2022-07-24T08:47:30;5.68;;;3.08;;
26538;SDS011;14205;43.200;24.170;2022-07-24T08:49:57;7.70;;;3.10;;
26538;SDS011;14205;43.200;24.170;2022-07-24T08:52:24;7.10;;;3.10;;
26538;SDS011;14205;43.200;24.170;2022-07-24T08:54:50;6.63;;;3.15;;
26538;SDS011;14205;43.200;24.170;2022-07-24T08:57:17;11.32;;;3.63;;
26538;SDS011;14205;43.200;24.170;2022-07-24T08:59:43;11.43;;;3.38;;
26538;SDS011;14205;43.200;24.170;2022-07-24T09:02:08;9.88;;;2.95;;
26538;SDS011;14205;43.200;24.170;2022-07-24T09:04:35;6.50;;;2.80;;
26538;SDS011;14205;43.200;24.170;2022-07-24T09:07:08;11.50;;;3.25;;
26538;SDS011;14205;43.200;24.170;2022-07-24T09:09:42;8.10;;;2.83;;
26538;SDS011;14205;43.200;24.170;2022-07-24T09:14:37;7.13;;;3.28;;
26538;SDS011;14205;43.200;24.170;2022-07-24T09:17:05;5.82;;;3.00;;
26538;SDS011;14205;43.200;24.170;2022-07-24T09:19:45;13.88;;;3.25;;
26538;SDS011;14205;43.200;24.170;2022-07-24T09:25:19;7.65;;;3.53;;
26538;SDS011;14205;43.200;24.170;2022-07-24T09:27:47;7.68;;;3.25;;
26538;SDS011;14205;43.200;24.170;2022-07-24T09:30:21;9.50;;;3.65;;
26538;SDS011;14205;43.200;24.170;2022-07-24T09:32:52;16.05;;;3.80;;
26538;SDS011;14205;43.200;24.170;2022-07-24T09:35:21;10.40;;;4.10;;
26538;SDS011;14205;43.200;24.170;2022-07-24T09:37:57;9.73;;;4.55;;
26538;SDS011;14205;43.200;24.170;2022-07-24T09:40:28;8.27;;;4.03;;
26538;SDS011;14205;43.200;24.170;2022-07-24T09:43:41;18.33;;;4.55;;
26538;SDS011;14205;43.200;24.170;2022-07-24T09:48:36;12.13;;;3.80;;
26538;SDS011;14205;43.200;24.170;2022-07-24T09:51:10;12.30;;;3.78;;
26538;SDS011;14205;43.200;24.170;2022-07-24T09:53:38;13.27;;;4.07;;
26538;SDS011;14205;43.200;24.170;2022-07-24T09:58:30;22.77;;;4.05;;
26538;SDS011;14205;43.200;24.170;2022-07-24T10:00:57;11.43;;;3.90;;
26538;SDS011;14205;43.200;24.170;2022-07-24T10:03:27;12.73;;;3.67;;
26538;SDS011;14205;43.200;24.170;2022-07-24T10:05:55;6.95;;;3.25;;
26538;SDS011;14205;43.200;24.170;2022-07-24T10:08:23;11.85;;;3.63;;
26538;SDS011;14205;43.200;24.170;2022-07-24T10:10:49;13.70;;;4.07;;
26538;SDS011;14205;43.200;24.170;2022-07-24T10:13:15;15.40;;;4.03;;
26538;SDS011;14205;43.200;24.170;2022-07-24T10:15:51;9.75;;;4.20;;
26538;SDS011;14205;43.200;24.170;2022-07-24T10:18:21;13.32;;;4.20;;
26538;SDS011;14205;43.200;24.170;2022-07-24T10:21:05;15.05;;;4.43;;
26538;SDS011;14205;43.200;24.170;2022-07-24T10:23:40;10.95;;;4.22;;
26538;SDS011;14205;43.200;24.170;2022-07-24T10:29:11;5.65;;;3.47;;
26538;SDS011;14205;43.200;24.170;2022-07-24T10:34:15;8.05;;;3.42;;
26538;SDS011;14205;43.200;24.170;2022-07-24T10:40:54;7.78;;;3.58;;
26538;SDS011;14205;43.200;24.170;2022-07-24T10:45:44;6.20;;;3.47;;
26538;SDS011;14205;43.200;24.170;2022-07-24T10:53:21;7.05;;;3.30;;
26538;SDS011;14205;43.200;24.170;2022-07-24T10:55:51;10.13;;;3.60;;
26538;SDS011;14205;43.200;24.170;2022-07-24T10:58:16;8.10;;;3.60;;
26538;SDS011;14205;43.200;24.170;2022-07-24T11:00:49;8.70;;;3.40;;
26538;SDS011;14205;43.200;24.170;2022-07-24T11:06:10;7.93;;;3.60;;
26538;SDS011;14205;43.200;24.170;2022-07-24T11:08:40;9.60;;;4.32;;
26538;SDS011;14205;43.200;24.170;2022-07-24T11:16:21;7.80;;;3.60;;
26538;SDS011;14205;43.200;24.170;2022-07-24T11:21:38;21.55;;;4.00;;
26538;SDS011;14205;43.200;24.170;2022-07-24T11:27:16;7.20;;;3.25;;
26538;SDS011;14205;43.200;24.170;2022-07-24T11:29:41;11.05;;;3.63;;
26538;SDS011;14205;43.200;24.170;2022-07-24T11:32:08;15.75;;;3.78;;
26538;SDS011;14205;43.200;24.170;2022-07-24T11:34:42;7.20;;;3.10;;
26538;SDS011;14205;43.200;24.170;2022-07-24T11:37:08;11.63;;;3.70;;
26538;SDS011;14205;43.200;24.170;2022-07-24T11:39:36;9.43;;;3.28;;
26538;SDS011;14205;43.200;24.170;2022-07-24T11:42:08;7.60;;;3.75;;
26538;SDS011;14205;43.200;24.170;2022-07-24T11:47:08;13.25;;;3.58;;
26538;SDS011;14205;43.200;24.170;2022-07-24T11:52:04;9.15;;;3.38;;
26538;SDS011;14205;43.200;24.170;2022-07-24T11:54:30;7.38;;;3.75;;
26538;SDS011;14205;43.200;24.170;2022-07-24T11:56:56;8.45;;;4.00;;
26538;SDS011;14205;43.200;24.170;2022-07-24T11:59:25;8.88;;;3.80;;
26538;SDS011;14205;43.200;24.170;2022-07-24T12:01:54;5.63;;;3.10;;
26538;SDS011;14205;43.200;24.170;2022-07-24T12:04:21;9.38;;;3.83;;
26538;SDS011;14205;43.200;24.170;2022-07-24T12:06:47;7.10;;;3.38;;
26538;SDS011;14205;43.200;24.170;2022-07-24T12:09:13;10.73;;;3.97;;
26538;SDS011;14205;43.200;24.170;2022-07-24T12:11:38;11.75;;;3.55;;
26538;SDS011;14205;43.200;24.170;2022-07-24T12:14:04;7.18;;;3.60;;
26538;SDS011;14205;43.200;24.170;2022-07-24T12:16:37;6.80;;;3.75;;
26538;SDS011;14205;43.200;24.170;2022-07-24T12:19:12;7.50;;;3.53;;
26538;SDS011;14205;43.200;24.170;2022-07-24T12:21:39;5.32;;;3.55;;
26538;SDS011;14205;43.200;24.170;2022-07-24T12:24:05;8.48;;;3.97;;
26538;SDS011;14205;43.200;24.170;2022-07-24T12:26:31;9.27;;;3.80;;
26538;SDS011;14205;43.200;24.170;2022-07-24T12:29:09;8.00;;;4.00;;
26538;SDS011;14205;43.200;24.170;2022-07-24T12:31:35;7.22;;;4.00;;
26538;SDS011;14205;43.200;24.170;2022-07-24T12:34:00;6.13;;;3.72;;
26538;SDS011;14205;43.200;24.170;2022-07-24T12:36:26;7.85;;;3.97;;
26538;SDS011;14205;43.200;24.170;2022-07-24T12:38:53;6.53;;;3.78;;
26538;SDS011;14205;43.200;24.170;2022-07-24T12:41:20;20.10;;;6.10;;
26538;SDS011;14205;43.200;24.170;2022-07-24T12:43:51;9.57;;;3.90;;
26538;SDS011;14205;43.200;24.170;2022-07-24T12:46:17;9.63;;;3.85;;
26538;SDS011;14205;43.200;24.170;2022-07-24T12:49:01;8.05;;;3.90;;
26538;SDS011;14205;43.200;24.170;2022-07-24T12:54:27;10.40;;;5.03;;
26538;SDS011;14205;43.200;24.170;2022-07-24T12:56:58;10.75;;;4.22;;
26538;SDS011;14205;43.200;24.170;2022-07-24T12:59:28;6.93;;;3.97;;
26538;SDS011;14205;43.200;24.170;2022-07-24T13:01:56;8.00;;;4.25;;
26538;SDS011;14205;43.200;24.170;2022-07-24T13:04:32;8.52;;;4.53;;
26538;SDS011;14205;43.200;24.170;2022-07-24T13:07:06;7.13;;;4.40;;
26538;SDS011;14205;43.200;24.170;2022-07-24T13:09:32;11.55;;;4.20;;
26538;SDS011;14205;43.200;24.170;2022-07-24T13:11:59;11.43;;;4.60;;
26538;SDS011;14205;43.200;24.170;2022-07-24T13:14:24;8.65;;;4.68;;
26538;SDS011;14205;43.200;24.170;2022-07-24T13:16:50;14.80;;;4.70;;
26538;SDS011;14205;43.200;24.170;2022-07-24T13:19:18;9.68;;;4.72;;
26538;SDS011;14205;43.200;24.170;2022-07-24T13:21:44;7.45;;;4.60;;
26538;SDS011;14205;43.200;24.170;2022-07-24T13:24:11;10.75;;;4.95;;
26538;SDS011;14205;43.200;24.170;2022-07-24T13:26:39;8.13;;;4.85;;
26538;SDS011;14205;43.200;24.170;2022-07-24T13:29:06;9.13;;;5.53;;
26538;SDS011;14205;43.200;24.170;2022-07-24T13:31:32;7.50;;;5.32;;
26538;SDS011;14205;43.200;24.170;2022-07-24T13:33:58;18.23;;;5.90;;
26538;SDS011;14205;43.200;24.170;2022-07-24T13:36:24;10.23;;;5.93;;
26538;SDS011;14205;43.200;24.170;2022-07-24T13:38:49;10.35;;;6.38;;
26538;SDS011;14205;43.200;24.170;2022-07-24T13:41:15;9.98;;;6.63;;
26538;SDS011;14205;43.200;24.170;2022-07-24T13:43:43;9.15;;;7.07;;
26538;SDS011;14205;43.200;24.170;2022-07-24T13:46:10;13.88;;;6.47;;
26538;SDS011;14205;43.200;24.170;2022-07-24T13:48:35;12.50;;;5.88;;
26538;SDS011;14205;43.200;24.170;2022-07-24T13:51:01;9.45;;;6.43;;
26538;SDS011;14205;43.200;24.170;2022-07-24T13:53:26;10.57;;;5.72;;
26538;SDS011;14205;43.200;24.170;2022-07-24T13:55:51;10.50;;;6.25;;
26538;SDS011;14205;43.200;24.170;2022-07-24T13:58:17;12.38;;;5.90;;
26538;SDS011;14205;43.200;24.170;2022-07-24T14:00:43;12.10;;;6.30;;
26538;SDS011;14205;43.200;24.170;2022-07-24T14:03:08;6.43;;;5.20;;
26538;SDS011;14205;43.200;24.170;2022-07-24T14:05:33;9.35;;;6.30;;
26538;SDS011;14205;43.200;24.170;2022-07-24T14:07:59;10.45;;;7.20;;
26538;SDS011;14205;43.200;24.170;2022-07-24T14:10:25;9.80;;;7.25;;
26538;SDS011;14205;43.200;24.170;2022-07-24T14:12:51;11.88;;;7.03;;
26538;SDS011;14205;43.200;24.170;2022-07-24T14:15:16;11.00;;;7.55;;
26538;SDS011;14205;43.200;24.170;2022-07-24T14:17:42;13.30;;;8.05;;
26538;SDS011;14205;43.200;24.170;2022-07-24T14:20:10;10.48;;;5.93;;
26538;SDS011;14205;43.200;24.170;2022-07-24T14:22:37;7.00;;;5.55;;
26538;SDS011;14205;43.200;24.170;2022-07-24T14:25:03;11.63;;;5.28;;
26538;SDS011;14205;43.200;24.170;2022-07-24T14:27:30;9.93;;;6.60;;
26538;SDS011;14205;43.200;24.170;2022-07-24T14:29:56;10.57;;;5.72;;
26538;SDS011;14205;43.200;24.170;2022-07-24T14:32:21;14.23;;;6.10;;
26538;SDS011;14205;43.200;24.170;2022-07-24T14:34:47;8.80;;;6.60;;
26538;SDS011;14205;43.200;24.170;2022-07-24T14:37:12;11.20;;;5.95;;
26538;SDS011;14205;43.200;24.170;2022-07-24T14:39:38;11.30;;;6.50;;
26538;SDS011;14205;43.200;24.170;2022-07-24T14:42:03;6.97;;;5.65;;
26538;SDS011;14205;43.200;24.170;2022-07-24T14:44:29;9.60;;;5.88;;
26538;SDS011;14205;43.200;24.170;2022-07-24T14:46:55;9.52;;;5.53;;
26538;SDS011;14205;43.200;24.170;2022-07-24T14:49:20;8.20;;;5.70;;
26538;SDS011;14205;43.200;24.170;2022-07-24T14:51:45;14.60;;;6.13;;
26538;SDS011;14205;43.200;24.170;2022-07-24T14:54:11;12.73;;;6.32;;
26538;SDS011;14205;43.200;24.170;2022-07-24T14:56:36;7.80;;;5.80;;
26538;SDS011;14205;43.200;24.170;2022-07-24T14:59:02;7.72;;;5.90;;
26538;SDS011;14205;43.200;24.170;2022-07-24T15:01:28;11.95;;;5.40;;
26538;SDS011;14205;43.200;24.170;2022-07-24T15:03:53;7.63;;;5.43;;
26538;SDS011;14205;43.200;24.170;2022-07-24T15:06:20;12.27;;;5.95;;
26538;SDS011;14205;43.200;24.170;2022-07-24T15:08:46;9.57;;;5.13;;
26538;SDS011;14205;43.200;24.170;2022-07-24T15:11:11;16.55;;;6.45;;
26538;SDS011;14205;43.200;24.170;2022-07-24T15:13:37;12.80;;;5.82;;